createdAt,value
2017-04-20T00:00:21.220Z,66.38
2017-04-20T00:01:21.557Z,66.28
2017-04-20T00:02:21.191Z,65.81
2017-04-20T00:03:21.183Z,66
2017-04-20T00:04:21.160Z,65.72
2017-04-20T00:05:21.146Z,66.09
2017-04-20T00:06:21.432Z,66
2017-04-20T00:07:21.117Z,66.28
2017-04-20T00:08:21.105Z,66.19
2017-04-20T00:09:21.088Z,66.28
2017-04-20T00:10:21.072Z,66.19
2017-04-20T00:11:21.059Z,66.09
2017-04-20T00:12:21.046Z,66.56
2017-04-20T00:13:21.029Z,66.56
2017-04-20T00:14:21.014Z,67.03
2017-04-20T00:15:20.998Z,66.75
2017-04-20T00:16:20.983Z,66.66
2017-04-20T00:17:20.967Z,66.56
2017-04-20T00:18:20.954Z,66.75
2017-04-20T00:19:20.939Z,66.56
2017-04-20T00:20:20.923Z,67.03
2017-04-20T00:21:21.000Z,66.75
2017-04-20T00:22:20.895Z,66.47
2017-04-20T00:23:20.881Z,66.56
2017-04-20T00:24:20.865Z,66.66
2017-04-20T00:25:20.850Z,66.85
2017-04-20T00:26:20.833Z,66.56
2017-04-20T00:27:20.819Z,66.75
2017-04-20T00:28:20.808Z,66.85
2017-04-20T00:29:20.489Z,66.75
2017-04-20T00:30:20.778Z,66.66
2017-04-20T00:31:20.757Z,66.75
2017-04-20T00:32:20.748Z,66.47
2017-04-20T00:33:20.729Z,66.75
2017-04-20T00:34:20.715Z,66.75
2017-04-20T00:35:20.700Z,67.03
2017-04-20T00:36:20.687Z,66.56
2017-04-20T00:37:20.672Z,67.03
2017-04-20T00:38:20.653Z,66.56
2017-04-20T00:39:20.725Z,66.75
2017-04-20T00:40:20.625Z,66.75
2017-04-20T00:41:20.609Z,66.56
2017-04-20T00:42:20.595Z,66.85
2017-04-20T00:43:20.578Z,66.75
2017-04-20T00:44:20.569Z,66.94
2017-04-20T00:45:20.547Z,66.85
2017-04-20T00:46:20.533Z,66.75
2017-04-20T00:47:20.518Z,66.47
2017-04-20T00:48:20.510Z,66.75
2017-04-20T00:49:20.493Z,67.03
2017-04-20T00:50:20.473Z,66.85
2017-04-20T00:51:20.459Z,66.75
2017-04-20T00:52:20.442Z,66.75
2017-04-20T00:53:20.427Z,66.94
2017-04-20T00:54:20.411Z,66.66
2017-04-20T00:55:20.400Z,67.03
2017-04-20T00:56:20.381Z,66.66
2017-04-20T00:57:20.514Z,66.75
2017-04-20T00:58:20.352Z,67.13
2017-04-20T00:59:20.339Z,66.66
2017-04-20T01:00:20.321Z,66.91
2017-04-20T01:01:20.306Z,66.53
2017-04-20T01:02:20.290Z,66.66
2017-04-20T01:03:20.274Z,66.75
2017-04-20T01:04:20.259Z,66.82
2017-04-20T01:05:20.244Z,67
2017-04-20T01:06:20.229Z,66.82
2017-04-20T01:07:20.217Z,66.66
2017-04-20T01:08:20.197Z,66.66
2017-04-20T01:09:20.186Z,66.72
2017-04-20T01:10:20.169Z,67.03
2017-04-20T01:11:20.152Z,66.66
2017-04-20T01:12:20.136Z,66.91
2017-04-20T01:13:20.122Z,67
2017-04-20T01:14:20.107Z,67.1
2017-04-20T01:15:20.091Z,66.82
2017-04-20T01:16:20.076Z,66.91
2017-04-20T01:17:20.063Z,67
2017-04-20T01:18:20.046Z,66.72
2017-04-20T01:19:20.030Z,67.38
2017-04-20T01:20:20.015Z,66.63
2017-04-20T01:21:19.999Z,67.47
2017-04-20T01:22:19.984Z,67.1
2017-04-20T01:23:19.969Z,67
2017-04-20T01:24:20.017Z,67.1
2017-04-20T01:25:19.938Z,66.82
2017-04-20T01:26:19.923Z,67.19
2017-04-20T01:27:19.906Z,67.1
2017-04-20T01:28:19.892Z,67.47
2017-04-20T01:29:19.876Z,66.91
2017-04-20T01:30:19.861Z,67.19
2017-04-20T01:31:19.847Z,67.57
2017-04-20T01:32:20.130Z,67.19
2017-04-20T01:33:19.814Z,66.91
2017-04-20T01:34:19.799Z,67
2017-04-20T01:35:19.788Z,67
2017-04-20T01:36:19.769Z,66.82
2017-04-20T01:37:20.002Z,67.29
2017-04-20T01:38:19.737Z,67.29
2017-04-20T01:39:19.725Z,67.1
2017-04-20T01:40:19.706Z,67
2017-04-20T01:41:19.691Z,67
2017-04-20T01:42:19.985Z,67.1
2017-04-20T01:43:19.660Z,66.91
2017-04-20T01:44:19.646Z,67.38
2017-04-20T01:45:19.629Z,67.1
2017-04-20T01:46:19.614Z,67
2017-04-20T01:47:19.851Z,67
2017-04-20T01:48:19.585Z,67.1
2017-04-20T01:49:19.266Z,67.1
2017-04-20T01:50:19.554Z,67.47
2017-04-20T01:51:19.537Z,66.91
2017-04-20T01:52:19.568Z,67.1
2017-04-20T01:53:19.520Z,67.29
2017-04-20T01:54:19.491Z,66.72
2017-04-20T01:55:19.473Z,67.19
2017-04-20T01:56:19.459Z,67.29
2017-04-20T01:57:19.694Z,67.1
2017-04-20T01:58:19.430Z,66.91
2017-04-20T01:59:19.413Z,67.29
2017-04-20T02:00:19.397Z,67.29
2017-04-20T02:01:19.381Z,67.47
2017-04-20T02:02:19.615Z,67.1
2017-04-20T02:03:19.350Z,67.29
2017-04-20T02:04:19.337Z,67.38
2017-04-20T02:05:19.320Z,67.29
2017-04-20T02:06:19.303Z,67.38
2017-04-20T02:07:19.543Z,67.29
2017-04-20T02:08:18.971Z,67.38
2017-04-20T02:09:19.258Z,67.38
2017-04-20T02:10:19.242Z,67.57
2017-04-20T02:11:19.231Z,67.47
2017-04-20T02:12:19.511Z,67.29
2017-04-20T02:13:19.195Z,67.38
2017-04-20T02:14:19.181Z,67.38
2017-04-20T02:15:19.167Z,67.47
2017-04-20T02:16:19.152Z,67.29
2017-04-20T02:17:19.384Z,67.38
2017-04-20T02:18:19.118Z,67.47
2017-04-20T02:19:19.102Z,67.29
2017-04-20T02:20:19.086Z,67.38
2017-04-20T02:21:19.070Z,67.38
2017-04-20T02:22:19.055Z,68.14
2017-04-20T02:23:19.040Z,67.38
2017-04-20T02:24:19.023Z,67.47
2017-04-20T02:25:19.008Z,67.38
2017-04-20T02:26:19.137Z,67.38
2017-04-20T02:27:18.977Z,67.76
2017-04-20T02:28:18.968Z,67.66
2017-04-20T02:29:18.947Z,67.66
2017-04-20T02:30:18.930Z,67.66
2017-04-20T02:31:18.914Z,67.66
2017-04-20T02:32:18.899Z,67.66
2017-04-20T02:33:18.884Z,67.76
2017-04-20T02:34:18.869Z,68.14
2017-04-20T02:35:18.920Z,68.14
2017-04-20T02:36:18.836Z,68.23
2017-04-20T02:37:18.821Z,67.66
2017-04-20T02:38:18.804Z,68.14
2017-04-20T02:39:18.795Z,68.23
2017-04-20T02:40:18.470Z,67.85
2017-04-20T02:41:18.758Z,67.76
2017-04-20T02:42:18.742Z,68.14
2017-04-20T02:43:18.731Z,67.95
2017-04-20T02:44:18.710Z,67.76
2017-04-20T02:45:18.696Z,68.23
2017-04-20T02:46:18.680Z,68.23
2017-04-20T02:47:18.665Z,67.95
2017-04-20T02:48:18.650Z,68.14
2017-04-20T02:49:18.633Z,67.95
2017-04-20T02:50:18.617Z,68.23
2017-04-20T02:51:18.602Z,67.95
2017-04-20T02:52:18.585Z,67.76
2017-04-20T02:53:18.265Z,67.76
2017-04-20T02:54:18.254Z,67.95
2017-04-20T02:55:18.537Z,67.95
2017-04-20T02:56:18.521Z,68.14
2017-04-20T02:57:18.507Z,67.76
2017-04-20T02:58:18.494Z,67.76
2017-04-20T02:59:18.476Z,68.14
2017-04-20T03:00:18.459Z,68.23
2017-04-20T03:01:18.611Z,68.14
2017-04-20T03:02:18.429Z,67.95
2017-04-20T03:03:18.417Z,68.14
2017-04-20T03:04:18.395Z,68.14
2017-04-20T03:05:18.382Z,67.85
2017-04-20T03:06:18.363Z,67.76
2017-04-20T03:07:18.350Z,67.76
2017-04-20T03:08:18.335Z,67.76
2017-04-20T03:09:18.316Z,68.14
2017-04-20T03:10:18.301Z,68.14
2017-04-20T03:11:18.293Z,67.95
2017-04-20T03:12:18.271Z,67.85
2017-04-20T03:13:18.254Z,67.66
2017-04-20T03:14:18.240Z,67.95
2017-04-20T03:15:18.223Z,68.04
2017-04-20T03:16:18.206Z,67.66
2017-04-20T03:17:18.192Z,67.76
2017-04-20T03:18:18.176Z,67.66
2017-04-20T03:19:18.160Z,68.04
2017-04-20T03:20:18.179Z,68.04
2017-04-20T03:21:18.128Z,67.85
2017-04-20T03:22:18.112Z,67.66
2017-04-20T03:23:18.097Z,67.66
2017-04-20T03:24:18.081Z,67.76
2017-04-20T03:25:18.267Z,68.04
2017-04-20T03:26:18.048Z,67.76
2017-04-20T03:27:18.036Z,67.76
2017-04-20T03:28:18.016Z,67.95
2017-04-20T03:29:18.005Z,67.76
2017-04-20T03:30:17.985Z,67.76
2017-04-20T03:31:17.970Z,67.85
2017-04-20T03:32:17.954Z,67.95
2017-04-20T03:33:17.936Z,67.76
2017-04-20T03:34:17.921Z,68.04
2017-04-20T03:35:17.906Z,67.95
2017-04-20T03:36:17.918Z,67.95
2017-04-20T03:37:17.874Z,68.04
2017-04-20T03:38:18.162Z,68.23
2017-04-20T03:39:17.843Z,68.23
2017-04-20T03:40:17.845Z,68.23
2017-04-20T03:41:17.812Z,68.04
2017-04-20T03:42:17.794Z,68.14
2017-04-20T03:43:18.028Z,67.95
2017-04-20T03:44:17.844Z,67.66
2017-04-20T03:45:17.751Z,67.63
2017-04-20T03:46:17.730Z,67.91
2017-04-20T03:47:17.715Z,67.63
2017-04-20T03:48:17.952Z,67.82
2017-04-20T03:49:17.685Z,67.82
2017-04-20T03:50:17.667Z,68.01
2017-04-20T03:51:17.652Z,67.85
2017-04-20T03:52:17.635Z,67.91
2017-04-20T03:53:17.869Z,68.01
2017-04-20T03:54:17.604Z,68.1
2017-04-20T03:55:17.587Z,68.39
2017-04-20T03:56:17.268Z,68.29
2017-04-20T03:57:17.253Z,68.39
2017-04-20T03:58:17.794Z,68.29
2017-04-20T03:59:17.524Z,68.29
2017-04-20T04:00:17.509Z,68.33
2017-04-20T04:01:17.754Z,68.33
2017-04-20T04:02:17.479Z,68.39
2017-04-20T04:03:17.711Z,68.33
2017-04-20T04:04:17.444Z,67.95
2017-04-20T04:05:17.429Z,67.91
2017-04-20T04:06:17.412Z,68.01
2017-04-20T04:07:17.396Z,68.14
2017-04-20T04:08:17.732Z,68.04
2017-04-20T04:09:17.367Z,67.95
2017-04-20T04:10:17.350Z,68.04
2017-04-20T04:11:17.333Z,68.33
2017-04-20T04:12:17.317Z,68.33
2017-04-20T04:13:17.553Z,68.42
2017-04-20T04:14:17.286Z,68.9
2017-04-20T04:15:17.274Z,68.23
2017-04-20T04:16:17.254Z,68.33
2017-04-20T04:17:17.237Z,68.14
2017-04-20T04:18:17.473Z,68.42
2017-04-20T04:19:17.209Z,68.42
2017-04-20T04:20:17.192Z,68.33
2017-04-20T04:21:17.174Z,68.33
2017-04-20T04:22:17.161Z,68.33
2017-04-20T04:23:17.495Z,68.33
2017-04-20T04:24:17.129Z,68.14
2017-04-20T04:25:17.113Z,68.14
2017-04-20T04:26:17.150Z,68.27
2017-04-20T04:27:17.083Z,68.17
2017-04-20T04:28:17.067Z,68.17
2017-04-20T04:29:17.053Z,68.17
2017-04-20T04:30:17.039Z,68.08
2017-04-20T04:31:17.046Z,67.98
2017-04-20T04:32:16.705Z,68.4
2017-04-20T04:33:16.997Z,68.59
2017-04-20T04:34:16.981Z,68.3
2017-04-20T04:35:17.025Z,67.17
2017-04-20T04:36:16.950Z,67.55
2017-04-20T04:37:16.937Z,68.33
2017-04-20T04:38:16.929Z,69
2017-04-20T04:39:16.910Z,68.33
2017-04-20T04:40:16.898Z,67.9
2017-04-20T04:41:16.886Z,67.9
2017-04-20T04:42:16.872Z,68.4
2017-04-20T04:43:16.860Z,68.31
2017-04-20T04:44:16.543Z,69.92
2017-04-20T04:45:16.835Z,68.5
2017-04-20T04:46:16.822Z,70.43
2017-04-20T04:47:16.820Z,69.48
2017-04-20T04:48:16.805Z,70.05
2017-04-20T04:49:16.789Z,69.8
2017-04-20T04:50:16.777Z,69.33
2017-04-20T04:51:16.768Z,69.04
2017-04-20T04:52:16.757Z,68
2017-04-20T04:53:16.748Z,67.18
2017-04-20T04:54:16.736Z,68.51
2017-04-20T04:55:16.726Z,66.99
2017-04-20T04:56:16.718Z,66.46
2017-04-20T04:57:16.707Z,65.41
2017-04-20T04:58:16.706Z,65.12
2017-04-20T04:59:16.690Z,65.03
2017-04-20T05:00:16.797Z,64.49
2017-04-20T05:01:16.671Z,63.73
2017-04-20T05:02:16.663Z,63.45
2017-04-20T05:03:16.654Z,62.88
2017-04-20T05:04:16.646Z,62.12
2017-04-20T05:05:16.638Z,61.96
2017-04-20T05:06:16.630Z,61.87
2017-04-20T05:07:16.625Z,61.8
2017-04-20T05:08:16.616Z,60.47
2017-04-20T05:09:16.609Z,58.66
2017-04-20T05:10:16.602Z,56.7
2017-04-20T05:11:16.597Z,56.22
2017-04-20T05:12:16.587Z,56.98
2017-04-20T05:13:16.583Z,56.51
2017-04-20T05:14:16.576Z,56.03
2017-04-20T05:15:16.570Z,56.03
2017-04-20T05:16:16.564Z,56.15
2017-04-20T05:17:16.558Z,53.3
2017-04-20T05:18:16.557Z,51.99
2017-04-20T05:19:16.550Z,52.72
2017-04-20T05:20:16.543Z,52.72
2017-04-20T05:21:16.537Z,53.04
2017-04-20T05:22:16.532Z,51.99
2017-04-20T05:23:16.529Z,52.37
2017-04-20T05:24:16.522Z,50.97
2017-04-20T05:25:16.520Z,48.02
2017-04-20T05:26:16.590Z,47.18
2017-04-20T05:27:16.513Z,46.8
2017-04-20T05:28:16.505Z,46.61
2017-04-20T05:29:16.501Z,46.89
2017-04-20T05:30:16.498Z,46.13
2017-04-20T05:31:16.494Z,46.82
2017-04-20T05:32:16.496Z,46.82
2017-04-20T05:33:16.487Z,45.68
2017-04-20T05:34:16.484Z,44.27
2017-04-20T05:35:16.486Z,42.27
2017-04-20T05:36:17.696Z,40.66
2017-04-20T05:38:16.169Z,41.05
2017-04-20T05:39:16.469Z,39.42
2017-04-20T05:40:16.470Z,38.96
2017-04-20T05:41:16.464Z,39.06
2017-04-20T05:42:16.465Z,39.73
2017-04-20T05:43:16.608Z,38.68
2017-04-20T05:44:16.459Z,39.64
2017-04-20T05:45:16.153Z,38.78
2017-04-20T05:46:16.151Z,38.6
2017-04-20T05:47:16.149Z,35.85
2017-04-20T05:48:16.148Z,35.94
2017-04-20T05:49:16.698Z,35.45
2017-04-20T05:50:16.144Z,35.55
2017-04-20T05:51:16.142Z,36.02
2017-04-20T05:52:16.449Z,36.21
2017-04-20T05:53:16.444Z,36.5
2017-04-20T05:54:16.691Z,35.74
2017-04-20T05:55:16.441Z,34.88
2017-04-20T05:56:16.438Z,35.55
2017-04-20T05:57:16.438Z,36.79
2017-04-20T05:58:16.436Z,36.5
2017-04-20T05:59:23.787Z,35.45
2017-04-20T06:00:16.433Z,34.49
2017-04-20T06:01:16.431Z,32.57
2017-04-20T06:02:16.430Z,31.9
2017-04-20T06:03:16.428Z,32.57
2017-04-20T06:04:16.678Z,33.03
2017-04-20T06:05:16.427Z,33.97
2017-04-20T06:06:16.425Z,34.54
2017-04-20T06:07:16.422Z,34.44
2017-04-20T06:08:16.422Z,33.78
2017-04-20T06:09:16.721Z,34.92
2017-04-20T06:10:16.421Z,35.49
2017-04-20T06:11:16.420Z,36.16
2017-04-20T06:12:16.420Z,36.71
2017-04-20T06:13:16.420Z,36.64
2017-04-20T06:14:16.669Z,35.39
2017-04-20T06:15:16.420Z,34.08
2017-04-20T06:16:16.418Z,34.08
2017-04-20T06:17:16.111Z,33.49
2017-04-20T06:18:16.414Z,33.39
2017-04-20T06:19:16.664Z,34.23
2017-04-20T06:20:16.418Z,35.17
2017-04-20T06:21:16.412Z,36.51
2017-04-20T06:22:16.411Z,37.44
2017-04-20T06:23:16.412Z,38.56
2017-04-20T06:24:16.756Z,39.23
2017-04-20T06:25:16.404Z,38.78
2017-04-20T06:26:16.404Z,38.68
2017-04-20T06:27:16.403Z,38.39
2017-04-20T06:28:16.401Z,38.2
2017-04-20T06:29:16.649Z,38.49
2017-04-20T06:30:16.094Z,37.65
2017-04-20T06:31:16.395Z,37.27
2017-04-20T06:32:16.395Z,36.71
2017-04-20T06:33:16.451Z,36.14
2017-04-20T06:34:16.643Z,34.71
2017-04-20T06:36:16.389Z,35.28
2017-04-20T06:38:16.389Z,34.9
2017-04-20T06:39:16.638Z,34.23
2017-04-20T06:40:16.387Z,35
2017-04-20T06:41:16.387Z,35.28
2017-04-20T06:42:16.386Z,34.06
2017-04-20T06:43:16.387Z,34.06
2017-04-20T06:44:16.637Z,34.54
2017-04-20T06:45:16.388Z,32.82
2017-04-20T06:46:16.390Z,32.63
2017-04-20T06:47:16.392Z,32.92
2017-04-20T06:48:16.388Z,33.11
2017-04-20T06:49:16.689Z,32.93
2017-04-20T06:50:16.391Z,32.65
2017-04-20T06:51:16.430Z,32.55
2017-04-20T06:52:16.395Z,32.26
2017-04-20T06:53:16.393Z,32.17
2017-04-20T06:54:16.695Z,32.07
2017-04-20T06:55:16.397Z,31.5
2017-04-20T06:56:16.424Z,32.17
2017-04-20T06:57:16.437Z,31.12
2017-04-20T06:58:16.401Z,30.85
2017-04-20T06:59:16.654Z,31.04
2017-04-20T07:00:16.406Z,31.32
2017-04-20T07:01:16.408Z,31.51
2017-04-20T07:02:16.411Z,31.72
2017-04-20T07:03:16.411Z,31.07
2017-04-20T07:04:16.714Z,29.54
2017-04-20T07:05:16.416Z,28.79
2017-04-20T07:06:16.418Z,27.47
2017-04-20T07:07:16.437Z,27.37
2017-04-20T07:08:16.424Z,27.09
2017-04-20T07:09:16.727Z,27
2017-04-20T07:10:16.431Z,26.15
2017-04-20T07:11:16.435Z,25.19
2017-04-20T07:12:16.440Z,25
2017-04-20T07:13:16.442Z,23.86
2017-04-20T07:14:16.702Z,23.75
2017-04-20T07:15:16.451Z,25
2017-04-20T07:16:16.455Z,24.91
2017-04-20T07:17:16.459Z,24.44
2017-04-20T07:18:16.463Z,23.88
2017-04-20T07:19:16.770Z,23.97
2017-04-20T07:20:16.473Z,24.34
2017-04-20T07:21:16.479Z,24.16
2017-04-20T07:22:16.482Z,23.11
2017-04-20T07:23:16.487Z,22.83
2017-04-20T07:24:16.815Z,23.58
2017-04-20T07:25:16.195Z,23.58
2017-04-20T07:26:16.504Z,23.88
2017-04-20T07:27:16.507Z,22.44
2017-04-20T07:28:16.513Z,21.77
2017-04-20T07:29:16.514Z,22.42
2017-04-20T07:30:16.524Z,22.61
2017-04-20T07:31:16.532Z,23.44
2017-04-20T07:32:16.535Z,24.29
2017-04-20T07:33:16.541Z,25.44
2017-04-20T07:34:16.796Z,25.54
2017-04-20T07:35:16.550Z,25.82
2017-04-20T07:36:16.556Z,25.92
2017-04-20T07:37:16.561Z,26.31
2017-04-20T07:38:16.565Z,25.09
2017-04-20T07:39:16.915Z,24.41
2017-04-20T07:40:16.578Z,23.66
2017-04-20T07:41:16.583Z,23.27
2017-04-20T07:42:16.286Z,23.66
2017-04-20T07:43:16.595Z,23.65
2017-04-20T07:44:16.852Z,23.93
2017-04-20T07:45:16.611Z,24.41
2017-04-20T07:46:16.616Z,23.84
2017-04-20T07:47:16.621Z,24.32
2017-04-20T07:48:16.629Z,24.21
2017-04-20T07:49:16.886Z,24.96
2017-04-20T07:50:16.644Z,24.58
2017-04-20T07:51:16.653Z,24.39
2017-04-20T07:52:16.658Z,24.87
2017-04-20T07:53:16.664Z,24.87
2017-04-20T07:54:16.972Z,24.59
2017-04-20T07:55:16.679Z,23.54
2017-04-20T07:56:16.690Z,23.06
2017-04-20T07:57:16.696Z,23.54
2017-04-20T07:58:16.703Z,23.83
2017-04-20T07:59:16.962Z,23.92
2017-04-20T08:00:16.719Z,24.69
2017-04-20T08:01:16.726Z,24.3
2017-04-20T08:02:16.738Z,23.74
2017-04-20T08:03:16.743Z,23.18
2017-04-20T08:04:17.051Z,21.84
2017-04-20T08:05:16.760Z,21.36
2017-04-20T08:06:16.765Z,20.78
2017-04-20T08:07:16.776Z,21.84
2017-04-20T08:08:16.780Z,22.31
2017-04-20T08:09:17.137Z,22.11
2017-04-20T08:10:16.794Z,22.11
2017-04-20T08:11:16.800Z,23.16
2017-04-20T08:12:16.805Z,23.62
2017-04-20T08:13:16.812Z,24.39
2017-04-20T08:14:16.516Z,23.82
2017-04-20T08:15:16.522Z,23.72
2017-04-20T08:16:16.831Z,23.61
2017-04-20T08:17:16.835Z,23.99
2017-04-20T08:18:16.838Z,25.03
2017-04-20T08:19:16.845Z,25.7
2017-04-20T08:20:16.854Z,25.99
2017-04-20T08:21:16.852Z,26.37
2017-04-20T08:22:16.861Z,25.42
2017-04-20T08:23:16.860Z,25.62
2017-04-20T08:24:16.863Z,24.37
2017-04-20T08:25:16.866Z,24.84
2017-04-20T08:26:16.872Z,25.4
2017-04-20T08:27:16.873Z,25.88
2017-04-20T08:28:16.876Z,26.26
2017-04-20T08:29:16.880Z,26.17
2017-04-20T08:30:16.885Z,26.17
2017-04-20T08:31:16.885Z,26.25
2017-04-20T08:32:16.892Z,27.01
2017-04-20T08:33:16.891Z,28.14
2017-04-20T08:34:16.892Z,28.8
2017-04-20T08:35:16.895Z,29.08
2017-04-20T08:36:16.590Z,29.85
2017-04-20T08:37:16.893Z,30.5
2017-04-20T08:38:16.892Z,31.64
2017-04-20T08:39:16.894Z,32.4
2017-04-20T08:40:16.888Z,32.29
2017-04-20T08:41:16.587Z,32.39
2017-04-20T08:42:16.885Z,32.68
2017-04-20T08:43:16.587Z,33.91
2017-04-20T08:44:16.882Z,33.34
2017-04-20T08:45:16.877Z,33.53
2017-04-20T08:46:16.886Z,33.9
2017-04-20T08:47:16.872Z,35.42
2017-04-20T08:48:16.865Z,35.42
2017-04-20T08:49:16.861Z,35.99
2017-04-20T08:50:16.858Z,35.71
2017-04-20T08:51:16.853Z,35.52
2017-04-20T08:52:16.851Z,36.76
2017-04-20T08:53:16.849Z,37.04
2017-04-20T08:54:16.840Z,37.13
2017-04-20T08:55:16.834Z,36.76
2017-04-20T08:56:16.829Z,35.89
2017-04-20T08:57:16.825Z,35.71
2017-04-20T08:58:16.518Z,35.42
2017-04-20T08:59:16.814Z,35.33
2017-04-20T09:00:17.110Z,36.26
2017-04-20T09:01:16.806Z,36.55
2017-04-20T09:02:16.492Z,36.93
2017-04-20T09:03:16.793Z,37.02
2017-04-20T09:04:16.482Z,36.93
2017-04-20T09:05:17.027Z,36.83
2017-04-20T09:06:16.470Z,37.49
2017-04-20T09:07:16.766Z,37.59
2017-04-20T09:08:16.785Z,37.78
2017-04-20T09:09:16.754Z,37.4
2017-04-20T09:10:16.996Z,38.14
2017-04-20T09:11:16.740Z,38.81
2017-04-20T09:12:16.735Z,39.38
2017-04-20T09:13:16.725Z,39.28
2017-04-20T09:14:16.721Z,39.28
2017-04-20T09:15:17.014Z,39.09
2017-04-20T09:16:16.707Z,39.38
2017-04-20T09:17:16.700Z,39.97
2017-04-20T09:18:16.692Z,39.67
2017-04-20T09:19:16.687Z,39
2017-04-20T09:20:17.045Z,39.28
2017-04-20T09:21:16.370Z,38.53
2017-04-20T09:22:16.364Z,38.45
2017-04-20T09:23:16.661Z,39.31
2017-04-20T09:24:16.654Z,38.92
2017-04-20T09:25:16.949Z,38.64
2017-04-20T09:26:16.646Z,38.26
2017-04-20T09:27:16.635Z,38.45
2017-04-20T09:28:16.775Z,38.54
2017-04-20T09:29:16.618Z,39.02
2017-04-20T09:30:16.964Z,38.83
2017-04-20T09:31:16.608Z,39.21
2017-04-20T09:32:16.601Z,39.69
2017-04-20T09:33:16.593Z,39.78
2017-04-20T09:34:16.590Z,38.73
2017-04-20T09:35:16.830Z,39.5
2017-04-20T09:36:16.270Z,39.78
2017-04-20T09:37:16.260Z,39.12
2017-04-20T09:38:16.258Z,38.37
2017-04-20T09:39:16.249Z,38.18
2017-04-20T09:40:16.794Z,38.09
2017-04-20T09:41:16.537Z,38.56
2017-04-20T09:42:16.530Z,38.18
2017-04-20T09:43:16.222Z,37.99
2017-04-20T09:44:16.519Z,38.09
2017-04-20T09:45:16.811Z,38.18
2017-04-20T09:46:16.503Z,38.37
2017-04-20T09:47:16.497Z,38.09
2017-04-20T09:48:16.490Z,38.39
2017-04-20T09:49:16.491Z,38.29
2017-04-20T09:50:16.826Z,38.1
2017-04-20T09:51:16.471Z,38.32
2017-04-20T09:52:16.465Z,37.27
2017-04-20T09:53:16.458Z,35.27
2017-04-20T09:54:16.463Z,35.36
2017-04-20T09:55:16.696Z,35.36
2017-04-20T09:56:16.440Z,35.46
2017-04-20T09:57:16.130Z,36.12
2017-04-20T09:58:16.427Z,35.64
2017-04-20T09:59:16.421Z,36.03
2017-04-20T10:00:16.666Z,34.41
2017-04-20T10:01:16.107Z,35.15
2017-04-20T10:02:16.565Z,35.63
2017-04-20T10:03:16.398Z,36.1
2017-04-20T10:04:16.392Z,36.85
2017-04-20T10:05:16.636Z,36.76
2017-04-20T10:06:16.382Z,37.04
2017-04-20T10:07:16.375Z,37.23
2017-04-20T10:08:16.368Z,37.23
2017-04-20T10:09:16.362Z,36.76
2017-04-20T10:10:16.674Z,36.94
2017-04-20T10:11:16.048Z,37.15
2017-04-20T10:12:16.346Z,36.96
2017-04-20T10:13:16.337Z,36.88
2017-04-20T10:14:16.334Z,36.88
2017-04-20T10:15:16.631Z,37.08
2017-04-20T10:16:16.325Z,36.41
2017-04-20T10:17:16.313Z,35.55
2017-04-20T10:18:16.308Z,34.79
2017-04-20T10:19:16.302Z,34.03
2017-04-20T10:20:16.545Z,33.84
2017-04-20T10:21:16.289Z,34.5
2017-04-20T10:22:16.285Z,35.36
2017-04-20T10:23:15.975Z,35.35
2017-04-20T10:24:16.270Z,35.91
2017-04-20T10:25:15.962Z,36.49
2017-04-20T10:26:15.955Z,35.35
2017-04-20T10:27:16.253Z,35.91
2017-04-20T10:28:16.245Z,35.44
2017-04-20T10:29:15.936Z,35.63
2017-04-20T10:30:16.234Z,35.36
2017-04-20T10:31:15.926Z,35.27
2017-04-20T10:32:15.919Z,34.22
2017-04-20T10:33:15.912Z,34.41
2017-04-20T10:34:15.907Z,34.79
2017-04-20T10:35:15.899Z,35.36
2017-04-20T10:36:16.197Z,35.84
2017-04-20T10:37:15.895Z,35.95
2017-04-20T10:38:15.882Z,34.23
2017-04-20T10:39:15.876Z,33.57
2017-04-20T10:40:16.173Z,33.18
2017-04-20T10:41:15.863Z,33
2017-04-20T10:42:15.857Z,32.9
2017-04-20T10:43:16.156Z,32.81
2017-04-20T10:44:16.152Z,32.61
2017-04-20T10:45:15.842Z,32.42
2017-04-20T10:46:15.838Z,32.42
2017-04-20T10:47:15.828Z,32.9
2017-04-20T10:48:16.129Z,33
2017-04-20T10:49:16.122Z,32.71
2017-04-20T10:50:16.116Z,32.92
2017-04-20T10:51:16.111Z,32.06
2017-04-20T10:52:16.105Z,31.58
2017-04-20T10:53:16.100Z,32.24
2017-04-20T10:54:16.093Z,32.52
2017-04-20T10:55:16.090Z,32.81
2017-04-20T10:56:16.083Z,32.44
2017-04-20T10:57:16.078Z,32.04
2017-04-20T10:58:16.073Z,32.42
2017-04-20T10:59:16.067Z,32.52
2017-04-20T11:00:16.062Z,32.81
2017-04-20T11:01:16.059Z,32.23
2017-04-20T11:02:16.053Z,32.32
2017-04-20T11:03:16.047Z,31.85
2017-04-20T11:04:16.041Z,30.42
2017-04-20T11:05:15.734Z,30.32
2017-04-20T11:06:16.035Z,31.09
2017-04-20T11:07:15.722Z,29.66
2017-04-20T11:08:16.020Z,29.56
2017-04-20T11:09:16.015Z,29.85
2017-04-20T11:10:15.707Z,29.37
2017-04-20T11:11:16.006Z,29.45
2017-04-20T11:12:16.002Z,30.31
2017-04-20T11:13:15.995Z,30.98
2017-04-20T11:14:15.683Z,30.4
2017-04-20T11:15:15.678Z,30.8
2017-04-20T11:16:15.672Z,30.42
2017-04-20T11:17:15.970Z,30.52
2017-04-20T11:18:15.660Z,30.61
2017-04-20T11:19:15.963Z,30.42
2017-04-20T11:20:15.961Z,30.52
2017-04-20T11:21:15.946Z,28.89
2017-04-20T11:22:15.637Z,29.37
2017-04-20T11:23:15.935Z,29.75
2017-04-20T11:24:15.939Z,29.75
2017-04-20T11:25:15.924Z,30.04
2017-04-20T11:26:15.615Z,29.94
2017-04-20T11:27:15.607Z,30.32
2017-04-20T11:28:15.603Z,30.32
2017-04-20T11:29:15.600Z,30.32
2017-04-20T11:30:15.895Z,29.66
2017-04-20T11:31:15.891Z,29.37
2017-04-20T11:32:15.579Z,29.38
2017-04-20T11:33:15.879Z,29.67
2017-04-20T11:34:15.876Z,29.29
2017-04-20T11:35:15.564Z,29.67
2017-04-20T11:36:16.160Z,30.05
2017-04-20T11:37:15.856Z,29.58
2017-04-20T11:38:15.546Z,29.58
2017-04-20T11:39:15.843Z,29.77
2017-04-20T11:40:15.839Z,28.53
2017-04-20T11:41:16.133Z,29.1
2017-04-20T11:42:15.826Z,29
2017-04-20T11:43:15.820Z,29.1
2017-04-20T11:44:15.837Z,29.58
2017-04-20T11:45:15.812Z,29.96
2017-04-20T11:46:16.155Z,29.77
2017-04-20T11:47:15.799Z,29.77
2017-04-20T11:48:15.794Z,28.43
2017-04-20T11:49:15.484Z,28.14
2017-04-20T11:50:15.783Z,27.68
2017-04-20T11:51:15.774Z,27.38
2017-04-20T11:52:15.772Z,27.19
2017-04-20T11:53:15.768Z,27
2017-04-20T11:54:15.759Z,26.72
2017-04-20T11:55:15.754Z,27.19
2017-04-20T11:56:15.999Z,26.72
2017-04-20T11:57:15.744Z,26.9
2017-04-20T11:58:15.738Z,26.62
2017-04-20T11:59:15.431Z,27.09
2017-04-20T12:00:15.729Z,27.57
2017-04-20T12:01:15.974Z,26.72
2017-04-20T12:02:15.414Z,27.11
2017-04-20T12:03:15.716Z,27.11
2017-04-20T12:04:15.706Z,27.11
2017-04-20T12:05:15.702Z,26.92
2017-04-20T12:06:15.998Z,26.06
2017-04-20T12:07:15.424Z,26.25
2017-04-20T12:08:15.685Z,26.25
2017-04-20T12:09:15.681Z,26.25
2017-04-20T12:10:15.676Z,26.25
2017-04-20T12:11:15.670Z,26.82
2017-04-20T12:12:15.666Z,26.44
2017-04-20T12:13:15.663Z,26.24
2017-04-20T12:14:15.354Z,25.85
2017-04-20T12:15:15.650Z,26.72
2017-04-20T12:16:15.641Z,27.37
2017-04-20T12:17:15.336Z,28.23
2017-04-20T12:18:15.634Z,28.13
2017-04-20T12:19:15.327Z,28.03
2017-04-20T12:20:15.622Z,28.23
2017-04-20T12:21:15.868Z,28.03
2017-04-20T12:22:15.614Z,28.61
2017-04-20T12:23:15.604Z,29.27
2017-04-20T12:24:15.603Z,28.61
2017-04-20T12:25:15.595Z,28.13
2017-04-20T12:26:15.839Z,27.76
2017-04-20T12:27:15.582Z,27.38
2017-04-20T12:28:15.578Z,27
2017-04-20T12:29:15.576Z,26.33
2017-04-20T12:30:15.566Z,25.29
2017-04-20T12:31:15.810Z,25.2
2017-04-20T12:32:15.555Z,25.2
2017-04-20T12:33:15.550Z,25.68
2017-04-20T12:34:15.544Z,25.49
2017-04-20T12:35:15.539Z,25.68
2017-04-20T12:36:15.833Z,25.58
2017-04-20T12:37:15.532Z,25.31
2017-04-20T12:38:15.523Z,24.64
2017-04-20T12:39:15.215Z,24.64
2017-04-20T12:40:15.611Z,24.73
2017-04-20T12:41:15.808Z,24.54
2017-04-20T12:42:15.501Z,24.46
2017-04-20T12:43:15.497Z,24.37
2017-04-20T12:44:15.188Z,24.27
2017-04-20T12:45:15.486Z,24.55
2017-04-20T12:46:15.733Z,24.83
2017-04-20T12:47:15.174Z,25.7
2017-04-20T12:48:15.473Z,25.32
2017-04-20T12:49:15.165Z,25.7
2017-04-20T12:50:15.464Z,25.8
2017-04-20T12:51:15.406Z,26.18
2017-04-20T12:52:15.453Z,26.18
2017-04-20T12:53:15.446Z,26.1
2017-04-20T12:54:15.142Z,25.71
2017-04-20T12:55:15.438Z,24.66
2017-04-20T12:56:15.481Z,24.38
2017-04-20T12:57:15.431Z,24.85
2017-04-20T12:58:15.425Z,24.29
2017-04-20T12:59:15.422Z,24.68